Time;durP1;ratioP1;P1;durP2;ratioP2;P2;SDS_P1;SDS_P2;PMS_P1;PMS_P2;Temp;Humidity;BMP_temperature;BMP_pressure;BME280_temperature;BME280_humidity;BME280_pressure;Samples;Min_cycle;Max_cycle;Signal;HPM_P1;HPM_P2
2022/01/13 00:41:29;;;;;;;8.85;7.28;;;;;;;-15.41;82.94;100483.38;6208035;23;20084;-80
2022/01/13 00:43:55;;;;;;;11.13;8.45;;;;;;;-15.74;83.22;100416.44;6155948;23;20108;-79
2022/01/13 00:46:26;;;;;;;9.13;6.55;;;;;;;-15.62;82.72;100442.13;6084509;23;20025;-79
2022/01/13 00:49:00;;;;;;;6.60;5.95;;;;;;;-15.45;82.42;100463.94;6158337;23;20017;-79
2022/01/13 00:51:27;;;;;;;11.20;8.60;;;;;;;-15.46;82.81;100459.72;6159445;23;20096;-80
2022/01/13 00:53:55;;;;;;;10.48;7.88;;;;;;;-15.41;82.99;100455.84;6134568;23;20108;-79
2022/01/13 00:56:21;;;;;;;11.55;8.10;;;;;;;-15.39;83.04;100452.66;6182141;23;20057;-80
2022/01/13 00:58:48;;;;;;;13.35;8.20;;;;;;;-15.43;82.70;100432.38;6106531;23;20021;-79
2022/01/13 01:01:17;;;;;;;12.35;8.13;;;;;;;-15.55;82.60;100416.72;6131670;23;20024;-79
2022/01/13 01:03:45;;;;;;;10.90;8.50;;;;;;;-15.39;83.34;100441.78;6156861;23;20171;-78
2022/01/13 01:06:14;;;;;;;11.43;7.70;;;;;;;-15.44;83.10;100430.63;6133392;23;20458;-78
2022/01/13 01:08:40;;;;;;;10.98;8.65;;;;;;;-15.46;82.74;100424.69;6156759;23;20106;-78
2022/01/13 01:11:09;;;;;;;6.03;5.30;;;;;;;-15.34;82.48;100437.88;6109265;23;20017;-78
2022/01/13 01:13:38;;;;;;;11.93;8.90;;;;;;;-15.48;82.16;100419.66;6156560;23;20020;-78
2022/01/13 01:16:10;;;;;;;10.77;8.68;;;;;;;-15.58;82.45;100401.53;6109456;23;20088;-78
2022/01/13 01:18:52;;;;;;;8.52;7.50;;;;;;;-15.47;82.26;100420.47;6133487;23;20565;-78
2022/01/13 01:26:48;;;;;;;11.73;9.48;;;;;;;-15.52;82.47;100402.75;6160193;23;20032;-78
2022/01/13 01:29:41;;;;;;;14.48;9.30;;;;;;;-15.72;82.65;100380.75;6132612;23;20032;-79
2022/01/13 01:32:11;;;;;;;4.95;4.18;;;;;;;-15.59;82.71;100370.66;6113123;23;20036;-79
2022/01/13 01:34:58;;;;;;;15.73;8.30;;;;;;;-15.52;82.34;100381.88;6156408;23;20470;-80
2022/01/13 01:37:27;;;;;;;10.35;5.95;;;;;;;-15.59;82.88;100369.78;6158862;23;20024;-79
2022/01/13 01:39:54;;;;;;;8.70;6.82;;;;;;;-15.58;82.65;100366.53;6131520;23;20025;-79
2022/01/13 01:42:20;;;;;;;5.20;4.78;;;;;;;-15.60;82.75;100360.56;6106329;23;20183;-79
2022/01/13 01:44:49;;;;;;;4.72;4.30;;;;;;;-15.58;82.17;100352.38;6131766;23;20087;-79
2022/01/13 01:47:16;;;;;;;6.68;6.07;;;;;;;-15.51;81.62;100359.47;6131704;23;20020;-79
2022/01/13 01:49:46;;;;;;;9.68;5.53;;;;;;;-15.52;81.75;100351.84;6106119;23;20028;-79
2022/01/13 01:52:17;;;;;;;6.65;5.35;;;;;;;-15.48;82.26;100363.75;6131361;23;20021;-79
2022/01/13 01:54:43;;;;;;;13.85;5.88;;;;;;;-15.63;82.25;100342.88;6133069;23;20025;-79
2022/01/13 01:57:12;;;;;;;6.60;5.28;;;;;;;-15.55;82.56;100336.69;6108179;23;20028;-80
2022/01/13 01:59:48;;;;;;;4.68;4.28;;;;;;;-15.50;82.19;100351.16;6158514;23;20017;-80
2022/01/13 02:02:15;;;;;;;8.90;6.97;;;;;;;-15.37;82.24;100365.16;6109402;23;20063;-79
2022/01/13 02:04:44;;;;;;;12.57;6.72;;;;;;;-15.41;82.55;100356.63;6156118;23;20033;-79
2022/01/13 02:07:11;;;;;;;5.90;5.30;;;;;;;-15.39;82.04;100359.22;6108685;23;20031;-79
2022/01/13 02:09:41;;;;;;;5.35;4.85;;;;;;;-15.42;82.63;100356.56;6109326;23;20020;-79
2022/01/13 02:12:10;;;;;;;6.45;5.70;;;;;;;-15.45;82.56;100338.88;6132618;23;20635;-79
2022/01/13 02:17:34;;;;;;;9.52;6.80;;;;;;;-15.36;82.42;100351.88;6115543;23;20025;-80
2022/01/13 02:20:05;;;;;;;9.05;5.88;;;;;;;-15.43;82.49;100352.31;6132962;23;20027;-79
2022/01/13 02:22:33;;;;;;;7.60;4.43;;;;;;;-15.44;82.52;100360.59;6132572;23;20016;-80
2022/01/13 02:24:59;;;;;;;5.57;5.03;;;;;;;-15.75;82.37;100312.19;6131727;23;20056;-80
2022/01/13 02:27:30;;;;;;;6.85;3.60;;;;;;;-15.63;82.58;100351.25;6130598;23;20048;-77
2022/01/13 02:30:00;;;;;;;8.15;4.45;;;;;;;-15.68;83.09;100329.28;6133958;23;20096;-77
2022/01/13 02:32:26;;;;;;;7.45;5.10;;;;;;;-15.74;82.49;100318.94;6154381;23;20104;-77
2022/01/13 02:34:55;;;;;;;9.45;6.03;;;;;;;-15.51;82.72;100344.47;6155778;23;20112;-78
2022/01/13 02:37:23;;;;;;;8.10;5.95;;;;;;;-15.49;82.35;100327.00;6132266;23;20098;-78
2022/01/13 02:39:51;;;;;;;13.10;7.00;;;;;;;-15.47;81.97;100335.41;6107262;23;20013;-77
2022/01/13 02:42:18;;;;;;;7.57;2.72;;;;;;;-15.54;82.53;100329.25;6131073;23;20048;-77
2022/01/13 02:45:02;;;;;;;3.05;2.85;;;;;;;-15.58;82.40;100309.00;6130193;23;20051;-76
2022/01/13 02:50:11;;;;;;;5.15;4.68;;;;;;;-15.67;82.00;100303.50;6135651;23;20100;-76
2022/01/13 02:52:38;;;;;;;1.83;1.83;;;;;;;-15.35;82.00;100361.13;6106521;23;20028;-78
2022/01/13 02:55:08;;;;;;;8.48;3.25;;;;;;;-15.56;81.92;100310.81;6132131;23;20029;-76
2022/01/13 02:57:35;;;;;;;5.50;4.00;;;;;;;-15.51;81.77;100323.56;6130164;23;20486;-77
2022/01/13 03:00:03;;;;;;;1.70;1.70;;;;;;;-15.38;82.24;100345.97;6131843;23;20101;-77
2022/01/13 03:02:31;;;;;;;2.22;2.17;;;;;;;-15.32;82.31;100356.28;6131927;23;20463;-77
2022/01/13 03:04:57;;;;;;;4.28;3.92;;;;;;;-15.38;82.28;100339.28;6133922;23;20025;-77
2022/01/13 03:07:25;;;;;;;1.65;1.60;;;;;;;-15.39;82.68;100331.72;6133271;23;20057;-76
2022/01/13 03:09:51;;;;;;;7.00;5.22;;;;;;;-15.20;82.16;100351.94;6157437;23;20017;-77
2022/01/13 03:12:17;;;;;;;4.68;3.15;;;;;;;-15.20;82.94;100351.94;6181377;23;20025;-76
2022/01/13 03:14:43;;;;;;;6.55;5.97;;;;;;;-15.30;83.66;100329.72;6131709;23;20425;-77
2022/01/13 03:17:09;;;;;;;3.50;3.25;;;;;;;-15.09;84.15;100325.88;6131548;23;20021;-77
2022/01/13 03:19:35;;;;;;;7.38;6.05;;;;;;;-15.14;84.75;100322.25;6131494;23;20012;-76
2022/01/13 03:22:02;;;;;;;2.10;2.08;;;;;;;-15.36;84.90;100286.84;6181257;23;20370;-77
2022/01/13 03:24:30;;;;;;;4.05;3.78;;;;;;;-15.07;84.43;100321.81;6156198;23;20123;-77
2022/01/13 03:26:56;;;;;;;10.82;6.53;;;;;;;-15.13;84.66;100321.47;6182378;23;20021;-78
2022/01/13 03:29:24;;;;;;;4.53;3.22;;;;;;;-15.13;85.11;100318.97;6132092;23;20027;-77
2022/01/13 03:31:50;;;;;;;11.88;6.88;;;;;;;-15.27;85.54;100294.84;6180585;23;20017;-76
2022/01/13 03:34:17;;;;;;;12.15;7.60;;;;;;;-15.27;85.30;100287.34;6157099;23;20365;-77
2022/01/13 03:36:44;;;;;;;10.38;8.38;;;;;;;-15.28;84.77;100275.63;6108837;23;20021;-76
2022/01/13 03:39:10;;;;;;;8.13;6.90;;;;;;;-15.17;85.02;100269.53;6107854;23;20369;-78
2022/01/13 03:41:37;;;;;;;9.18;7.07;;;;;;;-15.20;85.06;100266.88;6191942;23;20452;-74
2022/01/13 03:44:07;;;;;;;13.27;8.88;;;;;;;-15.16;85.79;100263.75;6216872;23;20012;-76
2022/01/13 03:46:37;;;;;;;12.65;8.52;;;;;;;-15.12;86.85;100265.66;6216270;23;20044;-76
2022/01/13 03:49:07;;;;;;;10.85;8.35;;;;;;;-15.11;86.85;100242.31;6216476;23;20050;-76
2022/01/13 03:51:51;;;;;;;13.23;8.50;;;;;;;-15.13;87.08;100218.88;6190906;23;20020;-76
2022/01/13 03:54:52;;;;;;;4.07;3.50;;;;;;;-15.09;86.92;100210.75;6216986;23;20024;-76
2022/01/13 03:58:03;;;;;;;9.13;5.65;;;;;;;-15.03;86.83;100210.19;6220463;23;20023;-76
2022/01/13 04:00:49;;;;;;;8.43;6.68;;;;;;;-15.11;87.07;100222.31;6223636;23;20024;-77
2022/01/13 04:03:15;;;;;;;14.23;7.68;;;;;;;-15.22;87.23;100218.41;6217682;23;20016;-76
2022/01/13 04:06:08;;;;;;;14.63;7.68;;;;;;;-15.29;86.92;100202.97;6190352;23;20418;-76
2022/01/13 04:08:34;;;;;;;25.02;13.38;;;;;;;-15.54;86.88;100163.34;6242150;23;20099;-76
2022/01/13 04:11:03;;;;;;;25.00;13.40;;;;;;;-15.64;86.62;100173.66;6144543;23;20020;-77
2022/01/13 04:13:57;;;;;;;17.95;11.23;;;;;;;-15.73;86.03;100164.00;6222635;23;20038;-76
2022/01/13 04:16:21;;;;;;;12.35;7.82;;;;;;;-15.87;86.20;100176.56;6200100;23;20024;-77
2022/01/13 04:18:48;;;;;;;11.90;8.35;;;;;;;-16.00;85.83;100158.38;6215182;23;20024;-76
2022/01/13 04:21:18;;;;;;;12.68;8.18;;;;;;;-15.92;85.45;100179.66;6190873;23;20038;-77
2022/01/13 04:23:44;;;;;;;5.25;4.97;;;;;;;-16.02;85.71;100197.44;6216253;23;20115;-76
2022/01/13 04:26:11;;;;;;;7.93;5.93;;;;;;;-16.09;85.59;100199.50;6215646;23;20016;-76
2022/01/13 04:28:40;;;;;;;9.55;7.78;;;;;;;-16.23;85.06;100200.38;6164876;23;20456;-76
2022/01/13 04:31:06;;;;;;;7.18;6.68;;;;;;;-16.40;85.81;100163.59;6191526;23;20039;-76
2022/01/13 04:33:37;;;;;;;21.10;6.75;;;;;;;-16.27;86.19;100184.38;6215718;23;20456;-76
2022/01/13 04:36:04;;;;;;;9.40;4.60;;;;;;;-16.34;85.96;100157.31;6215658;23;20111;-76
2022/01/13 04:38:30;;;;;;;17.33;8.45;;;;;;;-16.42;85.77;100135.22;6215333;23;20025;-75
2022/01/13 04:40:58;;;;;;;27.85;13.50;;;;;;;-16.39;85.90;100145.38;6216422;23;20020;-77
2022/01/13 04:43:27;;;;;;;11.43;8.88;;;;;;;-16.39;85.18;100153.72;6216370;23;20166;-76
2022/01/13 04:45:53;;;;;;;12.25;10.95;;;;;;;-16.34;85.14;100164.81;6216979;23;20016;-76
2022/01/13 04:48:19;;;;;;;19.85;10.55;;;;;;;-16.39;85.63;100148.72;6216301;23;20050;-77
2022/01/13 04:50:45;;;;;;;22.20;15.23;;;;;;;-16.45;85.06;100131.75;6190691;23;20462;-77
2022/01/13 04:53:11;;;;;;;15.75;10.23;;;;;;;-16.37;85.18;100148.78;6191084;23;20016;-76
2022/01/13 04:55:38;;;;;;;38.97;17.85;;;;;;;-16.36;85.29;100153.03;6189280;23;20086;-77
2022/01/13 04:58:05;;;;;;;9.90;7.25;;;;;;;-16.34;84.68;100167.31;6242225;23;20043;-76
2022/01/13 05:00:32;;;;;;;4.53;3.88;;;;;;;-16.35;84.98;100160.59;6215367;23;20020;-77
2022/01/13 05:02:58;;;;;;;38.38;17.50;;;;;;;-16.45;84.68;100149.22;6165870;23;20110;-77
2022/01/13 05:05:24;;;;;;;15.13;8.95;;;;;;;-16.59;84.51;100154.28;6241360;23;20016;-75
2022/01/13 05:07:50;;;;;;;31.42;13.80;;;;;;;-16.65;83.82;100143.94;6214431;23;20016;-75
2022/01/13 05:10:17;;;;;;;37.15;16.15;;;;;;;-16.66;83.65;100142.22;6241829;23;20016;-75
2022/01/13 05:12:45;;;;;;;6.22;4.13;;;;;;;-16.75;83.50;100136.72;6215375;23;20016;-75
2022/01/13 05:15:16;;;;;;;52.92;25.10;;;;;;;-16.94;83.43;100128.91;6215903;23;20032;-75
2022/01/13 05:20:36;;;;;;;29.85;15.90;;;;;;;-17.19;84.04;100077.66;6215448;23;20102;-75
2022/01/13 05:23:03;;;;;;;7.45;6.47;;;;;;;-17.13;84.20;100087.97;6142987;23;20081;-75
2022/01/13 05:25:29;;;;;;;17.80;8.55;;;;;;;-17.15;84.52;100084.53;6163141;23;20111;-75
2022/01/13 05:27:55;;;;;;;3.60;3.38;;;;;;;-16.92;85.00;100097.44;6213135;23;20027;-76
2022/01/13 05:30:21;;;;;;;8.05;6.88;;;;;;;-16.86;84.88;100107.78;6189789;23;20469;-75
2022/01/13 05:32:47;;;;;;;18.60;10.82;;;;;;;-16.82;84.75;100089.72;6189531;23;20071;-75
2022/01/13 05:35:15;;;;;;;42.22;16.95;;;;;;;-16.91;85.23;100081.72;6190160;23;20195;-74
2022/01/13 05:37:42;;;;;;;30.10;14.73;;;;;;;-16.87;85.26;100081.09;6213662;23;20051;-75
2022/01/13 05:40:10;;;;;;;14.93;10.32;;;;;;;-16.91;84.53;100071.75;6242110;23;20016;-76
2022/01/13 05:42:36;;;;;;;48.40;19.33;;;;;;;-16.95;85.00;100064.84;6164450;23;20024;-76
2022/01/13 05:45:03;;;;;;;24.52;12.57;;;;;;;-16.98;84.23;100053.91;6190350;23;20066;-76
2022/01/13 05:47:29;;;;;;;29.98;14.63;;;;;;;-17.00;84.73;100044.63;6214608;23;20531;-76
2022/01/13 05:49:55;;;;;;;25.67;12.45;;;;;;;-17.04;84.08;100043.59;6214992;23;20090;-76
2022/01/13 05:52:21;;;;;;;17.25;12.80;;;;;;;-17.03;84.29;100035.34;6189960;23;20030;-75
2022/01/13 05:54:47;;;;;;;30.40;16.40;;;;;;;-17.08;84.13;100011.75;6214609;23;20461;-76
2022/01/13 05:57:16;;;;;;;45.65;16.15;;;;;;;-17.11;84.77;99996.63;6240444;23;20020;-75
2022/01/13 05:59:42;;;;;;;36.40;17.55;;;;;;;-17.07;84.97;100005.13;6215389;23;20016;-75
2022/01/13 06:02:08;;;;;;;53.83;23.38;;;;;;;-17.13;84.59;100003.16;6214971;23;20020;-76
2022/01/13 06:04:35;;;;;;;48.83;23.10;;;;;;;-17.29;84.50;100010.56;6214725;23;20023;-75
2022/01/13 06:07:01;;;;;;;17.20;10.05;;;;;;;-17.35;84.07;100020.19;6242103;23;20016;-75
2022/01/13 06:09:27;;;;;;;44.33;18.33;;;;;;;-17.39;84.35;100013.31;6214248;23;20042;-75
2022/01/13 06:11:59;;;;;;;18.38;8.45;;;;;;;-17.47;84.38;100018.63;6214101;23;20027;-74
2022/01/13 06:14:25;;;;;;;15.88;9.13;;;;;;;-17.52;84.22;100039.16;6189925;23;20024;-75
2022/01/13 06:16:51;;;;;;;8.70;5.32;;;;;;;-17.58;84.79;100011.44;6241187;22;20026;-75
2022/01/13 06:19:18;;;;;;;12.77;9.88;;;;;;;-17.61;84.86;100011.25;6214937;23;20465;-74
2022/01/13 06:21:44;;;;;;;73.35;32.22;;;;;;;-17.56;85.95;100034.78;6241079;23;20154;-74
2022/01/13 06:24:10;;;;;;;18.05;8.88;;;;;;;-17.56;87.13;100033.94;6215074;23;20364;-73
2022/01/13 06:26:36;;;;;;;60.65;22.80;;;;;;;-17.74;86.62;100045.34;6164255;23;20119;-74
2022/01/13 06:29:03;;;;;;;40.00;17.48;;;;;;;-17.77;86.23;100028.59;6214230;23;20016;-74
2022/01/13 06:31:29;;;;;;;49.03;18.83;;;;;;;-17.83;86.79;100022.38;6210654;23;20330;-74
2022/01/13 06:33:55;;;;;;;11.80;8.35;;;;;;;-17.76;86.49;100025.28;6241275;23;20054;-76
2022/01/13 06:36:21;;;;;;;41.60;19.55;;;;;;;-17.88;86.66;99968.91;6214927;23;20016;-75
2022/01/13 06:38:49;;;;;;;35.38;18.60;;;;;;;-17.71;85.77;99988.19;6213715;23;20024;-74
2022/01/13 06:41:16;;;;;;;17.90;9.80;;;;;;;-17.73;86.12;99999.72;6214172;23;20028;-74
2022/01/13 06:43:42;;;;;;;22.20;11.90;;;;;;;-17.86;86.20;99970.72;6213918;23;20023;-75
2022/01/13 06:46:08;;;;;;;34.08;17.15;;;;;;;-17.77;86.83;99998.69;6189645;23;20507;-74
2022/01/13 06:48:36;;;;;;;23.92;13.73;;;;;;;-17.78;85.95;99999.44;6213720;23;20020;-75
2022/01/13 06:51:04;;;;;;;12.35;5.57;;;;;;;-17.81;86.26;100001.75;6189429;23;20027;-74
2022/01/13 06:53:31;;;;;;;21.58;11.68;;;;;;;-17.84;86.18;99956.75;6213567;23;20461;-75
2022/01/13 06:55:58;;;;;;;31.90;12.80;;;;;;;-17.84;86.29;99935.94;6139890;23;20028;-74
2022/01/13 06:58:24;;;;;;;9.35;6.40;;;;;;;-17.74;85.34;99949.03;6214612;23;20016;-74
2022/01/13 07:00:50;;;;;;;12.90;9.88;;;;;;;-17.63;84.54;99952.09;6213927;23;20016;-74
2022/01/13 07:03:19;;;;;;;11.13;8.15;;;;;;;-17.70;82.98;99950.06;6213720;23;20575;-74
2022/01/13 07:05:45;;;;;;;20.38;11.02;;;;;;;-17.57;82.44;99952.47;6165117;23;20012;-74
2022/01/13 07:08:12;;;;;;;18.08;9.52;;;;;;;-17.50;81.43;99952.00;6241432;23;20066;-75
2022/01/13 07:10:38;;;;;;;6.15;5.25;;;;;;;-17.13;80.54;99925.84;6214403;23;20020;-75
2022/01/13 07:13:04;;;;;;;16.80;9.20;;;;;;;-16.74;78.98;99929.63;6214290;23;20062;-74
2022/01/13 07:15:31;;;;;;;11.38;8.27;;;;;;;-17.24;78.47;99946.00;6241418;23;20027;-74
2022/01/13 07:17:58;;;;;;;15.48;10.98;;;;;;;-16.36;77.95;99951.59;6240330;22;20042;-75
2022/01/13 07:20:25;;;;;;;6.90;6.20;;;;;;;-16.71;78.54;99912.31;6239318;23;20016;-75
2022/01/13 07:22:51;;;;;;;15.45;10.85;;;;;;;-16.54;78.14;99909.03;6163438;23;20559;-75
2022/01/13 07:25:20;;;;;;;6.28;5.38;;;;;;;-15.23;74.28;99901.41;6213979;23;20520;-74
2022/01/13 07:27:47;;;;;;;10.18;8.48;;;;;;;-14.85;70.30;99913.19;6214257;23;20401;-73
2022/01/13 07:30:13;;;;;;;16.25;7.05;;;;;;;-14.59;70.21;99886.84;6213849;23;20020;-73
2022/01/13 07:32:39;;;;;;;8.57;6.85;;;;;;;-13.80;66.82;99878.53;6214100;23;20128;-74
2022/01/13 07:35:09;;;;;;;8.30;5.25;;;;;;;-14.79;67.73;99895.09;6214198;23;20024;-74
2022/01/13 07:37:35;;;;;;;8.93;5.75;;;;;;;-14.13;68.59;99862.94;6242391;23;20016;-74
2022/01/13 07:40:01;;;;;;;9.13;6.55;;;;;;;-14.58;67.33;99854.34;6240910;23;20135;-74
2022/01/13 07:42:28;;;;;;;10.57;8.05;;;;;;;-13.50;65.37;99854.69;6213410;23;20020;-74
2022/01/13 07:44:54;;;;;;;7.53;4.85;;;;;;;-13.38;64.74;99839.28;6213515;23;20449;-75
2022/01/13 07:47:20;;;;;;;17.13;11.38;;;;;;;-12.89;62.27;99842.81;6214348;23;20509;-75
2022/01/13 07:49:46;;;;;;;11.27;8.60;;;;;;;-13.17;62.43;99847.63;6213749;23;20026;-75
2022/01/13 07:52:12;;;;;;;13.52;8.27;;;;;;;-12.73;61.29;99840.06;6188854;23;20474;-75
2022/01/13 07:54:41;;;;;;;6.93;6.35;;;;;;;-12.32;59.69;99833.16;6241573;23;20091;-75
2022/01/13 07:57:07;;;;;;;12.77;8.70;;;;;;;-12.33;57.95;99831.44;6242538;23;20044;-75
2022/01/13 07:59:33;;;;;;;15.10;11.30;;;;;;;-12.32;57.92;99831.50;6215589;23;20023;-75
2022/01/13 08:02:00;;;;;;;9.38;7.88;;;;;;;-12.13;58.04;99820.41;6215229;23;20360;-76
2022/01/13 08:04:26;;;;;;;15.15;8.00;;;;;;;-12.12;57.32;99824.66;6165482;23;20097;-76
2022/01/13 08:06:52;;;;;;;17.77;10.68;;;;;;;-12.69;60.67;99807.53;6216325;23;20016;-77
2022/01/13 08:09:19;;;;;;;8.43;7.53;;;;;;;-12.94;61.11;99801.63;6191415;23;20023;-76
2022/01/13 08:11:45;;;;;;;7.07;6.38;;;;;;;-12.27;58.24;99786.44;6215484;23;20334;-77
2022/01/13 08:14:11;;;;;;;20.85;10.63;;;;;;;-13.56;61.34;99794.25;6215658;23;20086;-77
2022/01/13 08:16:41;;;;;;;9.85;6.35;;;;;;;-14.39;65.78;99789.19;6215276;22;20116;-75
2022/01/13 08:21:55;;;;;;;13.75;9.05;;;;;;;-14.94;69.13;99773.47;6248284;23;20015;-75
2022/01/13 08:24:21;;;;;;;9.18;7.95;;;;;;;-14.57;69.06;99762.53;6219224;23;20048;-74
2022/01/13 08:38:52;;;;;;;12.65;10.40;;;;;;;-11.39;56.88;99688.56;5104007;27;20400;-74
2022/01/13 08:41:19;;;;;;;8.45;6.88;;;;;;;-12.43;59.11;99671.09;5086116;28;20116;-74
2022/01/13 08:43:45;;;;;;;16.27;9.52;;;;;;;-11.13;57.63;99654.91;5102342;28;20048;-72
2022/01/13 08:46:12;;;;;;;12.98;8.10;;;;;;;-10.84;55.10;99646.44;5106443;28;20536;-72
2022/01/13 08:48:38;;;;;;;13.00;8.52;;;;;;;-12.33;59.18;99628.69;5107355;28;20070;-74
2022/01/13 08:51:04;;;;;;;10.40;9.02;;;;;;;-13.07;61.31;99608.63;5089566;28;20051;-73
2022/01/13 08:53:30;;;;;;;9.95;8.50;;;;;;;-13.36;63.86;99601.78;5106805;28;20054;-73
2022/01/13 08:55:56;;;;;;;13.57;7.65;;;;;;;-14.00;65.76;99599.44;5088702;28;20131;-72
2022/01/13 08:58:25;;;;;;;10.57;8.43;;;;;;;-14.85;68.89;99611.13;5088262;28;20138;-73
2022/01/13 09:00:52;;;;;;;15.07;11.57;;;;;;;-15.17;70.94;99631.47;5087644;28;20058;-72
2022/01/13 09:03:18;;;;;;;14.18;9.73;;;;;;;-15.23;73.05;99610.34;5088000;28;20039;-72
2022/01/13 09:05:44;;;;;;;17.13;11.75;;;;;;;-15.35;73.26;99600.69;5105718;28;20410;-72
2022/01/13 09:08:10;;;;;;;7.15;6.07;;;;;;;-14.94;72.40;99605.75;5088192;28;20043;-72
2022/01/13 09:10:39;;;;;;;11.30;6.88;;;;;;;-14.62;70.98;99573.63;5070994;28;20118;-72
2022/01/13 09:13:11;;;;;;;18.95;11.93;;;;;;;-14.57;70.09;99579.69;5088323;28;20591;-72
2022/01/13 09:15:44;;;;;;;31.13;17.00;;;;;;;-14.75;71.25;99566.47;5070932;28;20043;-72
2022/01/13 09:18:18;;;;;;;25.35;14.55;;;;;;;-14.76;71.52;99564.75;5087975;28;20044;-72
2022/01/13 09:20:45;;;;;;;21.98;13.25;;;;;;;-14.85;72.20;99557.72;5106016;28;20044;-71
2022/01/13 09:23:12;;;;;;;25.45;16.23;;;;;;;-14.90;72.24;99524.13;5106469;28;20034;-71
2022/01/13 09:25:38;;;;;;;16.02;11.10;;;;;;;-15.03;72.83;99525.31;5104830;28;20035;-71
2022/01/13 09:28:06;;;;;;;16.13;11.38;;;;;;;-14.67;71.89;99525.03;5104474;28;20135;-74
2022/01/13 09:30:32;;;;;;;13.48;9.07;;;;;;;-14.76;71.84;99535.56;5082798;28;20040;-73
2022/01/13 09:32:58;;;;;;;5.57;5.07;;;;;;;-14.71;72.56;99520.69;5066921;28;20047;-73
2022/01/13 09:35:24;;;;;;;13.20;9.68;;;;;;;-14.73;72.58;99530.69;5051307;28;20036;-73
2022/01/13 09:37:55;;;;;;;4.13;3.90;;;;;;;-14.62;72.53;99548.59;5043799;28;20061;-72
2022/01/13 09:40:22;;;;;;;7.50;6.75;;;;;;;-14.43;71.62;99548.53;5041739;28;20039;-71
2022/01/13 09:42:48;;;;;;;14.80;9.13;;;;;;;-14.56;72.38;99544.69;5051580;28;20581;-73
2022/01/13 09:45:15;;;;;;;7.78;6.88;;;;;;;-14.50;72.17;99509.88;5050489;28;20052;-73
2022/01/13 09:47:41;;;;;;;10.52;7.13;;;;;;;-14.58;72.56;99500.34;5037050;28;20513;-72
2022/01/13 09:50:11;;;;;;;11.13;6.90;;;;;;;-14.58;72.91;99490.31;5030527;28;20322;-72
2022/01/13 09:52:37;;;;;;;8.52;6.82;;;;;;;-14.49;73.09;99475.63;5031510;28;20041;-72
2022/01/13 09:55:07;;;;;;;9.30;8.30;;;;;;;-14.56;73.48;99462.03;5031493;28;20116;-71
2022/01/13 09:57:33;;;;;;;4.30;4.03;;;;;;;-14.40;73.36;99471.00;5031728;28;20053;-72
2022/01/13 10:00:00;;;;;;;10.80;8.60;;;;;;;-14.53;73.95;99469.69;5031281;28;20041;-71
2022/01/13 10:02:26;;;;;;;5.93;5.40;;;;;;;-14.36;73.81;99457.75;5031614;28;20385;-71
2022/01/13 10:04:53;;;;;;;7.65;6.75;;;;;;;-14.40;73.37;99446.81;5032601;28;20052;-73
2022/01/13 10:07:34;;;;;;;12.27;7.75;;;;;;;-14.30;73.66;99427.91;5040591;28;20049;-72
2022/01/13 10:10:05;;;;;;;14.65;11.18;;;;;;;-14.37;74.02;99418.50;5038719;28;20115;-72
2022/01/13 10:12:39;;;;;;;8.23;5.65;;;;;;;-14.33;74.16;99411.09;5051340;28;20040;-73
2022/01/13 10:17:57;;;;;;;13.88;11.40;;;;;;;-14.43;74.40;99390.72;5019133;28;20500;-72
2022/01/13 10:20:23;;;;;;;9.20;4.88;;;;;;;-14.28;74.24;99373.69;5049939;28;20454;-72
2022/01/13 10:22:53;;;;;;;7.45;6.72;;;;;;;-14.21;73.99;99373.09;5050986;28;20049;-73
2022/01/13 10:25:27;;;;;;;14.07;11.50;;;;;;;-14.20;73.58;99349.75;5051058;28;20041;-72
2022/01/13 10:27:53;;;;;;;5.60;5.15;;;;;;;-14.14;74.37;99334.94;5025126;28;20066;-73
2022/01/13 10:30:22;;;;;;;8.48;6.88;;;;;;;-14.12;73.92;99318.28;5031369;28;20046;-72
2022/01/13 10:32:48;;;;;;;11.15;8.82;;;;;;;-14.12;73.93;99307.41;5044542;28;20044;-72
2022/01/13 10:35:16;;;;;;;5.88;5.38;;;;;;;-14.01;73.45;99291.94;5051082;28;20045;-72
2022/01/13 10:37:43;;;;;;;10.38;8.73;;;;;;;-13.97;74.04;99282.84;5031746;28;20049;-73
2022/01/13 10:40:14;;;;;;;11.73;8.90;;;;;;;-13.90;74.29;99262.16;5014707;28;20045;-72
2022/01/13 10:45:28;;;;;;;7.95;7.15;;;;;;;-13.67;73.50;99243.66;5020485;28;19925;-72
2022/01/13 10:48:11;;;;;;;11.13;7.68;;;;;;;-13.63;73.69;99242.97;5028396;28;20189;-73
2022/01/13 10:50:39;;;;;;;6.20;4.88;;;;;;;-13.63;73.17;99235.44;5011064;28;20041;-75
2022/01/13 10:53:07;;;;;;;7.28;6.07;;;;;;;-13.58;74.08;99213.03;5013109;28;20077;-73
2022/01/13 10:55:53;;;;;;;9.38;7.03;;;;;;;-13.49;73.68;99214.13;5011923;28;20038;-72
2022/01/13 10:58:24;;;;;;;3.60;3.30;;;;;;;-13.50;73.65;99214.06;4996218;28;20054;-72
2022/01/13 11:00:53;;;;;;;8.30;6.13;;;;;;;-13.47;73.82;99199.13;5023126;28;20037;-72
2022/01/13 11:03:24;;;;;;;5.82;4.55;;;;;;;-13.34;73.74;99197.00;5011369;28;20650;-71
2022/01/13 11:05:52;;;;;;;5.65;4.50;;;;;;;-13.28;73.56;99172.06;5010586;28;20116;-71
2022/01/13 11:08:21;;;;;;;8.13;6.30;;;;;;;-13.25;74.11;99148.75;5009279;28;20061;-71
2022/01/13 11:10:50;;;;;;;9.13;7.32;;;;;;;-13.19;73.05;99148.91;5010028;28;20088;-73
2022/01/13 11:13:17;;;;;;;11.38;7.70;;;;;;;-13.19;72.58;99118.78;5017289;28;20060;-74
2022/01/13 11:15:49;;;;;;;6.82;5.25;;;;;;;-13.20;73.45;99112.06;5018545;28;20065;-73
2022/01/13 11:18:15;;;;;;;10.20;7.88;;;;;;;-13.19;73.49;99098.72;5023782;28;20115;-71
2022/01/13 11:20:44;;;;;;;9.15;7.53;;;;;;;-13.09;73.07;99087.25;4999606;28;20041;-71
2022/01/13 11:23:10;;;;;;;8.55;6.43;;;;;;;-13.02;73.82;99089.91;4998707;28;20037;-72
2022/01/13 11:25:37;;;;;;;5.22;4.05;;;;;;;-13.00;74.08;99073.22;5012178;28;20057;-72
2022/01/13 11:28:03;;;;;;;5.90;4.63;;;;;;;-12.97;73.19;99055.72;5012138;28;20049;-71
2022/01/13 11:30:32;;;;;;;7.22;6.05;;;;;;;-12.88;73.06;99055.09;5011467;28;20087;-71
2022/01/13 11:32:58;;;;;;;8.02;6.05;;;;;;;-12.82;73.08;99051.06;5023262;28;20413;-72
2022/01/13 11:35:31;;;;;;;8.90;5.93;;;;;;;-12.82;74.10;99010.03;5020616;28;20056;-73
2022/01/13 11:37:57;;;;;;;9.65;7.00;;;;;;;-12.72;74.98;99007.78;5034476;28;20052;-73
2022/01/13 11:40:26;;;;;;;6.68;5.28;;;;;;;-12.67;74.08;99004.53;5049406;28;20040;-73
2022/01/13 11:42:53;;;;;;;5.78;5.28;;;;;;;-12.67;75.37;98969.38;5037471;28;20072;-73
2022/01/13 11:45:19;;;;;;;8.20;6.22;;;;;;;-12.56;75.83;98962.94;5031440;28;20054;-74
2022/01/13 11:47:46;;;;;;;6.57;5.30;;;;;;;-12.53;76.91;98963.00;5066819;28;20036;-73
2022/01/13 11:50:22;;;;;;;6.50;5.47;;;;;;;-12.51;78.25;98947.13;5016987;28;20041;-73
2022/01/13 11:52:53;;;;;;;5.97;5.38;;;;;;;-12.48;78.46;98937.13;5066113;28;20037;-73
2022/01/13 11:55:26;;;;;;;4.55;4.15;;;;;;;-12.46;78.90;98919.56;5048429;28;20182;-72
2022/01/13 11:57:52;;;;;;;6.18;5.28;;;;;;;-12.43;80.48;98960.69;5068543;28;20045;-72
2022/01/13 12:00:23;;;;;;;8.85;6.22;;;;;;;-12.38;81.35;98958.28;5050624;28;20066;-73
2022/01/13 12:02:51;;;;;;;4.45;4.03;;;;;;;-12.34;82.08;98947.47;5067812;28;20056;-72
2022/01/13 12:05:21;;;;;;;8.30;6.22;;;;;;;-12.34;82.71;98929.88;5048303;28;20037;-72
2022/01/13 12:07:47;;;;;;;4.63;4.32;;;;;;;-12.28;82.55;98917.44;5050386;28;20024;-73
2022/01/13 12:10:37;;;;;;;5.93;5.32;;;;;;;-12.26;83.34;98876.44;5065906;28;20043;-73
2022/01/13 12:13:31;;;;;;;7.25;5.40;;;;;;;-12.19;84.64;98874.88;5046722;28;20067;-73
2022/01/13 12:15:57;;;;;;;4.38;4.00;;;;;;;-12.17;84.61;98881.63;5065663;28;20032;-72
2022/01/13 12:18:53;;;;;;;9.52;6.18;;;;;;;-12.14;84.95;98868.28;5061228;28;20052;-73
2022/01/13 12:21:32;;;;;;;7.28;5.32;;;;;;;-12.15;85.09;98841.44;5068835;28;20044;-74
2022/01/13 12:23:59;;;;;;;7.85;7.00;;;;;;;-12.13;84.99;98844.81;5066559;28;20612;-73
2022/01/13 12:26:41;;;;;;;7.60;6.03;;;;;;;-12.09;84.43;98836.50;5048568;28;20127;-74
2022/01/13 12:29:18;;;;;;;11.18;8.57;;;;;;;-12.03;84.51;98825.72;5062925;28;20040;-73
2022/01/13 12:32:01;;;;;;;6.70;6.03;;;;;;;-11.99;84.80;98819.91;5064294;28;20040;-73
2022/01/13 12:34:35;;;;;;;10.93;7.15;;;;;;;-11.92;85.32;98821.72;5048013;28;20045;-72
2022/01/13 12:37:22;;;;;;;9.13;7.28;;;;;;;-11.88;85.22;98800.84;5055128;28;20146;-73